Terminal Aerodrome Forecast
Issued by NWS

Home | Current Version | Previous Version | Text Only | Print | Product List | Glossary On
Versions: 1 2 3 4 5 6 7 8 9 10 11 12 13 14 15 16 17 18
000
FTUS41 KGYX 272346
TAFAUG
TAF
KAUG 272346Z 2800/2824 18005KT 5SM -SHRA OVC070
     FM280200 19004KT P6SM OVC060
     FM280400 21004KT P6SM VCSH BKN130
     FM280800 VRB03KT P6SM SCT120
     FM281400 29005KT P6SM BKN040=

USA.gov is the U.S. government's official web portal to all federal, state and local government web resources and services.